createdAt,value
2023-05-21T00:02:00.280Z,8.18
2023-05-21T00:04:29.876Z,8.00
2023-05-21T00:06:58.071Z,7.93
2023-05-21T00:09:25.057Z,8.05
2023-05-21T00:11:52.204Z,7.95
2023-05-21T00:14:19.119Z,7.10
2023-05-21T00:16:47.161Z,7.22
2023-05-21T00:19:15.349Z,7.60
2023-05-21T00:21:45.357Z,7.90
2023-05-21T00:24:12.639Z,7.30
2023-05-21T00:26:39.485Z,6.85
2023-05-21T00:29:06.744Z,7.38
2023-05-21T00:31:36.058Z,7.00
2023-05-21T00:34:03.039Z,7.15
2023-05-21T00:36:31.405Z,7.55
2023-05-21T00:38:58.365Z,7.35
2023-05-21T00:41:26.070Z,7.63
2023-05-21T00:43:54.757Z,6.82
2023-05-21T00:46:22.563Z,7.47
2023-05-21T00:48:55.815Z,7.13
2023-05-21T00:51:25.960Z,7.72
2023-05-21T00:53:53.288Z,8.07
2023-05-21T00:56:24.905Z,8.25
2023-05-21T00:58:52.370Z,6.97
2023-05-21T01:01:21.804Z,7.65
2023-05-21T01:03:49.173Z,7.30
2023-05-21T01:06:25.412Z,7.13
2023-05-21T01:09:08.527Z,7.05
2023-05-21T01:11:51.940Z,7.50
2023-05-21T01:14:25.709Z,7.45
2023-05-21T01:17:41.289Z,7.82
2023-05-21T01:20:17.532Z,7.70
2023-05-21T01:22:58.105Z,7.43
2023-05-21T01:25:25.616Z,7.93
2023-05-21T01:27:53.840Z,8.23
2023-05-21T01:30:32.997Z,7.50
2023-05-21T01:33:06.632Z,7.45
2023-05-21T01:35:53.132Z,7.53
2023-05-21T01:38:43.355Z,7.45
2023-05-21T01:41:23.419Z,8.15
2023-05-21T01:43:57.757Z,8.10
2023-05-21T01:46:37.664Z,7.60
2023-05-21T01:49:18.789Z,7.97
2023-05-21T01:52:13.749Z,7.55
2023-05-21T01:54:43.081Z,7.70
2023-05-21T01:57:12.601Z,7.53
2023-05-21T01:59:39.531Z,7.65
2023-05-21T02:02:06.823Z,8.00
2023-05-21T02:04:33.947Z,7.20
2023-05-21T02:07:01.006Z,7.88
2023-05-21T02:09:27.866Z,7.22
2023-05-21T02:11:55.824Z,7.28
2023-05-21T02:14:22.795Z,8.38
2023-05-21T02:16:50.010Z,8.02
2023-05-21T02:19:19.474Z,7.80
2023-05-21T02:21:46.533Z,8.40
2023-05-21T02:24:14.667Z,7.57
2023-05-21T02:26:42.369Z,7.45
2023-05-21T02:29:09.312Z,7.90
2023-05-21T02:31:36.145Z,7.75
2023-05-21T02:34:03.055Z,8.30
2023-05-21T02:36:33.854Z,8.05
2023-05-21T02:39:01.804Z,8.30
2023-05-21T02:41:29.222Z,8.35
2023-05-21T02:43:56.267Z,8.20
2023-05-21T02:46:24.181Z,8.18
2023-05-21T02:48:54.137Z,8.20
2023-05-21T02:51:21.104Z,8.32
2023-05-21T02:53:54.043Z,8.07
2023-05-21T02:59:02.164Z,8.05
2023-05-21T03:01:36.818Z,8.02
2023-05-21T03:04:07.549Z,7.28
2023-05-21T03:06:34.933Z,7.53
2023-05-21T03:09:07.869Z,8.45
2023-05-21T03:11:34.786Z,7.85
2023-05-21T03:14:05.000Z,7.80
2023-05-21T03:16:34.641Z,7.80
2023-05-21T03:19:01.908Z,7.53
2023-05-21T03:21:30.217Z,7.55
2023-05-21T03:24:00.856Z,8.55
2023-05-21T03:26:36.733Z,7.68
2023-05-21T03:29:03.919Z,8.07
2023-05-21T03:31:31.150Z,8.60
2023-05-21T03:34:03.095Z,7.72
2023-05-21T03:36:30.051Z,7.97
2023-05-21T03:38:57.417Z,8.00
2023-05-21T03:41:25.006Z,7.60
2023-05-21T03:43:51.916Z,8.05
2023-05-21T03:46:20.806Z,8.07
2023-05-21T03:48:47.701Z,8.00
2023-05-21T03:51:16.055Z,7.90
2023-05-21T03:53:42.977Z,7.68
2023-05-21T03:56:10.105Z,7.97
2023-05-21T03:58:37.700Z,7.95
2023-05-21T04:01:09.063Z,7.40
2023-05-21T04:03:37.966Z,7.38
2023-05-21T04:06:09.495Z,7.88
2023-05-21T04:08:39.772Z,8.05
2023-05-21T04:11:06.740Z,7.63
2023-05-21T04:13:33.643Z,7.75
2023-05-21T04:16:00.744Z,7.90
2023-05-21T04:18:27.786Z,8.18
2023-05-21T04:20:55.388Z,7.60
2023-05-21T04:23:23.622Z,7.78
2023-05-21T04:25:51.201Z,7.95
2023-05-21T04:28:20.459Z,8.27
2023-05-21T04:30:50.662Z,7.88
2023-05-21T04:33:18.585Z,8.52
2023-05-21T04:35:50.205Z,8.15
2023-05-21T04:40:53.146Z,7.88
2023-05-21T04:43:25.917Z,7.45
2023-05-21T04:45:56.769Z,7.63
2023-05-21T04:48:24.938Z,8.32
2023-05-21T04:50:53.705Z,7.43
2023-05-21T04:53:21.060Z,7.43
2023-05-21T04:55:48.249Z,7.78
2023-05-21T04:58:17.982Z,7.13
2023-05-21T05:00:51.130Z,7.95
2023-05-21T05:03:18.585Z,6.97
2023-05-21T05:05:46.015Z,7.55
2023-05-21T05:08:15.521Z,8.30
2023-05-21T05:10:43.036Z,7.50
2023-05-21T05:13:10.090Z,7.28
2023-05-21T05:15:37.165Z,5.78
2023-05-21T05:18:04.475Z,8.10
2023-05-21T05:20:31.722Z,7.63
2023-05-21T05:22:58.752Z,7.13
2023-05-21T05:25:25.775Z,8.23
2023-05-21T05:27:55.722Z,7.38
2023-05-21T05:30:22.643Z,7.88
2023-05-21T05:32:49.688Z,7.60
2023-05-21T05:35:16.781Z,7.50
2023-05-21T05:37:43.677Z,7.57
2023-05-21T05:40:11.133Z,7.65
2023-05-21T05:42:38.144Z,8.27
2023-05-21T05:45:05.397Z,7.90
2023-05-21T05:47:32.392Z,8.07
2023-05-21T05:49:59.380Z,8.73
2023-05-21T05:52:27.609Z,8.60
2023-05-21T05:54:54.503Z,8.40
2023-05-21T05:57:22.078Z,8.93
2023-05-21T05:59:49.517Z,7.55
2023-05-21T06:02:19.307Z,7.88
2023-05-21T06:04:46.658Z,7.75
2023-05-21T06:07:13.865Z,8.02
2023-05-21T06:09:41.075Z,7.50
2023-05-21T06:12:08.706Z,7.78
2023-05-21T06:14:38.346Z,8.02
2023-05-21T06:17:06.057Z,8.30
2023-05-21T06:19:33.307Z,8.10
2023-05-21T06:22:00.492Z,7.80
2023-05-21T06:24:32.701Z,7.85
2023-05-21T06:27:01.858Z,6.97
2023-05-21T06:29:28.974Z,7.65
2023-05-21T06:31:59.484Z,7.72
2023-05-21T06:34:29.029Z,7.93
2023-05-21T06:36:58.343Z,8.02
2023-05-21T06:39:25.788Z,7.40
2023-05-21T06:41:53.291Z,7.25
2023-05-21T06:44:20.556Z,9.27
2023-05-21T06:46:50.286Z,7.88
2023-05-21T06:49:17.257Z,8.23
2023-05-21T06:51:44.580Z,7.78
2023-05-21T06:54:17.153Z,7.63
2023-05-21T06:56:49.758Z,7.82
2023-05-21T06:59:24.745Z,7.85
2023-05-21T07:01:58.583Z,7.70
2023-05-21T07:04:25.656Z,7.75
2023-05-21T07:06:53.663Z,7.53
2023-05-21T07:09:20.559Z,7.57
2023-05-21T07:11:47.550Z,6.72
2023-05-21T07:14:14.618Z,7.28
2023-05-21T07:16:47.668Z,7.00
2023-05-21T07:19:21.083Z,7.90
2023-05-21T07:21:50.681Z,7.22
2023-05-21T07:24:17.530Z,7.50
2023-05-21T07:26:44.524Z,7.18
2023-05-21T07:29:11.373Z,6.90
2023-05-21T07:31:38.410Z,6.90
2023-05-21T07:34:15.752Z,7.05
2023-05-21T07:36:42.693Z,7.25
2023-05-21T07:39:16.302Z,7.45
2023-05-21T07:41:43.191Z,7.38
2023-05-21T07:44:13.269Z,6.82
2023-05-21T07:46:40.459Z,6.95
2023-05-21T07:49:07.734Z,6.88
2023-05-21T07:51:34.878Z,6.60
2023-05-21T07:54:09.089Z,6.20
2023-05-21T07:56:41.715Z,6.68
2023-05-21T07:59:12.781Z,6.30
2023-05-21T08:01:41.196Z,7.60
2023-05-21T08:04:08.398Z,6.32
2023-05-21T08:06:35.393Z,6.53
2023-05-21T08:09:02.239Z,6.07
2023-05-21T08:11:29.813Z,6.40
2023-05-21T08:13:56.736Z,6.47
2023-05-21T08:16:24.051Z,5.85
2023-05-21T08:18:51.550Z,6.10
2023-05-21T08:21:18.830Z,6.65
2023-05-21T08:23:48.023Z,6.60
2023-05-21T08:26:17.521Z,6.40
2023-05-21T08:28:44.510Z,6.30
2023-05-21T08:31:12.523Z,6.72
2023-05-21T08:33:39.582Z,6.68
2023-05-21T08:36:07.572Z,6.68
2023-05-21T08:38:35.058Z,5.80
2023-05-21T08:41:02.074Z,6.35
2023-05-21T08:43:29.527Z,6.28
2023-05-21T08:46:01.254Z,6.07
2023-05-21T08:48:31.192Z,5.90
2023-05-21T08:54:17.957Z,6.10
2023-05-21T08:59:36.424Z,6.13
2023-05-21T09:02:05.166Z,5.25
2023-05-21T09:07:12.330Z,5.93
2023-05-21T09:10:17.358Z,5.63
2023-05-21T09:12:57.919Z,6.00
2023-05-21T09:15:27.873Z,5.93
2023-05-21T09:17:57.731Z,6.13
2023-05-21T09:20:26.902Z,6.30
2023-05-21T09:22:55.534Z,5.68
2023-05-21T09:25:28.629Z,5.63
2023-05-21T09:28:02.512Z,6.03
2023-05-21T09:30:31.819Z,5.53
2023-05-21T09:33:00.922Z,5.90
2023-05-21T09:38:10.372Z,6.25
2023-05-21T09:44:02.769Z,5.90
2023-05-21T09:46:39.137Z,5.85
2023-05-21T09:49:06.127Z,6.00
2023-05-21T09:51:33.179Z,5.80
2023-05-21T09:54:00.333Z,5.25
2023-05-21T09:56:32.476Z,6.20
2023-05-21T09:59:06.472Z,6.00
2023-05-21T10:01:34.964Z,5.70
2023-05-21T10:04:06.757Z,5.63
2023-05-21T10:06:41.940Z,5.70
2023-05-21T10:09:11.909Z,5.70
2023-05-21T10:11:42.789Z,5.75
2023-05-21T10:14:19.643Z,5.55
2023-05-21T10:16:52.814Z,5.75
2023-05-21T10:19:20.498Z,5.32
2023-05-21T10:21:48.032Z,5.22
2023-05-21T10:24:16.919Z,5.43
2023-05-21T10:26:45.467Z,5.85
2023-05-21T10:29:15.625Z,4.63
2023-05-21T10:31:49.934Z,5.18
2023-05-21T10:34:17.796Z,6.05
2023-05-21T10:36:46.231Z,5.90
2023-05-21T10:39:14.055Z,6.00
2023-05-21T10:41:58.443Z,5.60
2023-05-21T10:44:53.718Z,6.35
2023-05-21T10:47:27.463Z,6.03
2023-05-21T10:50:29.639Z,5.13
2023-05-21T10:53:13.193Z,5.90
2023-05-21T10:56:09.539Z,5.97
2023-05-21T10:58:45.238Z,5.57
2023-05-21T11:01:13.624Z,7.00
2023-05-21T11:03:40.777Z,4.85
2023-05-21T11:06:11.684Z,5.88
2023-05-21T11:08:47.608Z,5.40
2023-05-21T11:11:43.333Z,5.70
2023-05-21T11:14:32.833Z,5.50
2023-05-21T11:17:01.258Z,6.47
2023-05-21T11:19:36.197Z,5.93
2023-05-21T11:22:22.057Z,5.97
2023-05-21T11:24:53.178Z,5.75
2023-05-21T11:27:42.680Z,5.80
2023-05-21T11:30:15.077Z,6.00
2023-05-21T11:33:08.129Z,5.70
2023-05-21T11:35:50.499Z,6.68
2023-05-21T11:38:18.688Z,5.00
2023-05-21T11:40:55.645Z,5.57
2023-05-21T11:43:23.062Z,5.30
2023-05-21T11:45:55.753Z,5.40
2023-05-21T11:48:27.787Z,5.70
2023-05-21T11:50:58.179Z,5.20
2023-05-21T11:53:38.794Z,5.60
2023-05-21T11:56:10.393Z,5.57
2023-05-21T11:58:37.294Z,5.30
2023-05-21T12:01:05.531Z,5.50
2023-05-21T12:03:35.413Z,5.35
2023-05-21T12:06:06.647Z,5.28
2023-05-21T12:11:02.006Z,5.25
2023-05-21T12:13:29.420Z,5.78
2023-05-21T12:15:56.819Z,5.88
2023-05-21T12:18:23.875Z,5.60
2023-05-21T12:20:52.420Z,5.47
2023-05-21T12:23:25.725Z,6.35
2023-05-21T12:25:53.862Z,5.88
2023-05-21T12:28:24.878Z,6.30
2023-05-21T12:30:53.648Z,5.10
2023-05-21T12:33:22.067Z,6.25
2023-05-21T12:35:51.735Z,5.82
2023-05-21T12:38:18.727Z,5.60
2023-05-21T12:40:46.085Z,5.50
2023-05-21T12:43:13.245Z,5.35
2023-05-21T12:45:40.753Z,5.43
2023-05-21T12:48:08.044Z,5.30
2023-05-21T12:50:36.151Z,5.05
2023-05-21T12:53:03.911Z,5.22
2023-05-21T12:55:36.449Z,5.35
2023-05-21T12:58:05.861Z,5.50
2023-05-21T13:00:35.971Z,5.18
2023-05-21T13:03:07.058Z,5.10
2023-05-21T13:05:34.630Z,4.93
2023-05-21T13:08:01.764Z,6.15
2023-05-21T13:10:28.752Z,5.68
2023-05-21T13:12:56.136Z,6.25
2023-05-21T13:15:27.480Z,5.75
2023-05-21T13:17:56.627Z,5.68
2023-05-21T13:20:26.636Z,5.35
2023-05-21T13:22:54.155Z,5.70
2023-05-21T13:25:25.381Z,5.47
2023-05-21T13:30:21.638Z,5.10
2023-05-21T13:32:49.088Z,5.50
2023-05-21T13:35:17.254Z,5.03
2023-05-21T13:37:44.748Z,4.70
2023-05-21T13:40:16.893Z,5.85
2023-05-21T13:45:29.235Z,5.00
2023-05-21T13:47:56.842Z,5.60
2023-05-21T13:58:34.618Z,5.57
2023-05-21T14:01:02.907Z,5.18
2023-05-21T14:03:32.834Z,5.13
2023-05-21T14:11:34.025Z,4.53
2023-05-21T14:16:42.840Z,4.63
2023-05-21T14:22:04.008Z,5.30
2023-05-21T14:24:31.461Z,4.75
2023-05-21T14:27:05.108Z,5.45
2023-05-21T14:35:19.297Z,4.75
2023-05-21T14:37:46.336Z,4.70
2023-05-21T14:51:08.609Z,4.65
2023-05-21T14:53:35.752Z,4.63
2023-05-21T14:56:02.608Z,4.38
2023-05-21T14:58:29.514Z,4.03
2023-05-21T15:00:56.561Z,4.70
2023-05-21T15:09:11.459Z,4.70
2023-05-21T15:11:42.082Z,4.40
2023-05-21T15:14:09.405Z,4.65
2023-05-21T15:16:40.624Z,4.78
2023-05-21T15:19:21.228Z,4.20
2023-05-21T15:21:48.518Z,4.35
2023-05-21T15:24:15.639Z,4.40
2023-05-21T15:26:42.691Z,4.25
2023-05-21T15:29:09.770Z,4.00
2023-05-21T15:31:36.816Z,3.80
2023-05-21T15:34:03.714Z,3.85
2023-05-21T15:36:30.632Z,4.43
2023-05-21T15:38:57.458Z,4.50
2023-05-21T15:41:26.162Z,4.40
2023-05-21T15:43:53.777Z,3.97
2023-05-21T15:46:21.204Z,4.15
2023-05-21T15:48:48.047Z,4.60
2023-05-21T15:56:44.292Z,4.05
2023-05-21T15:59:12.121Z,4.43
2023-05-21T16:01:40.552Z,3.97
2023-05-21T16:04:18.668Z,4.10
2023-05-21T16:18:21.953Z,4.32
2023-05-21T16:23:21.616Z,4.28
2023-05-21T16:25:49.075Z,4.20
2023-05-21T16:28:17.429Z,4.85
2023-05-21T16:30:44.407Z,4.30
2023-05-21T16:33:36.616Z,4.05
2023-05-21T16:36:06.834Z,3.85
2023-05-21T16:38:33.677Z,4.47
2023-05-21T16:41:00.561Z,4.03
2023-05-21T16:43:28.272Z,4.55
2023-05-21T17:05:13.333Z,4.40
2023-05-21T17:07:46.990Z,4.63
2023-05-21T17:10:25.636Z,4.60
2023-05-21T17:18:30.581Z,4.97
2023-05-21T17:21:08.603Z,4.43
2023-05-21T17:23:35.654Z,4.38
2023-05-21T17:31:34.159Z,4.78
2023-05-21T17:59:31.045Z,5.25
2023-05-21T18:51:49.526Z,6.15
2023-05-21T18:54:17.810Z,6.20
2023-05-21T18:56:45.297Z,6.13
2023-05-21T18:59:12.852Z,6.63
2023-05-21T19:01:41.954Z,6.75
2023-05-21T19:04:14.762Z,6.10
2023-05-21T19:12:17.213Z,7.00
2023-05-21T19:14:50.550Z,6.65
2023-05-21T19:17:20.972Z,7.07
2023-05-21T19:19:54.431Z,6.95
2023-05-21T19:22:31.864Z,6.10
2023-05-21T19:25:01.457Z,7.47
2023-05-21T19:27:29.592Z,7.07
2023-05-21T19:32:38.761Z,6.90
2023-05-21T19:35:06.382Z,6.78
2023-05-21T19:37:33.553Z,7.20
2023-05-21T20:11:52.492Z,6.65
2023-05-21T20:14:19.371Z,5.85
2023-05-21T20:16:47.305Z,5.90
2023-05-21T20:19:16.862Z,6.85
2023-05-21T20:21:44.949Z,6.30
2023-05-21T20:24:12.565Z,5.97
2023-05-21T20:26:40.097Z,5.45
2023-05-21T20:29:08.246Z,5.88
2023-05-21T20:31:35.879Z,5.80
2023-05-21T20:34:08.106Z,6.32
2023-05-21T20:36:40.426Z,6.13
2023-05-21T20:39:09.722Z,5.88
2023-05-21T20:44:22.194Z,5.57
2023-05-21T20:46:50.492Z,6.40
2023-05-21T20:49:17.769Z,5.57
2023-05-21T20:51:45.462Z,5.97
2023-05-21T20:54:14.171Z,6.22
2023-05-21T20:56:45.397Z,5.90
2023-05-21T20:59:13.568Z,6.18
2023-05-21T21:01:42.804Z,5.93
2023-05-21T21:04:10.070Z,5.95
2023-05-21T21:06:38.702Z,5.65
2023-05-21T21:09:06.193Z,6.10
2023-05-21T21:11:34.077Z,5.90
2023-05-21T21:14:03.541Z,5.85
2023-05-21T21:16:36.184Z,5.22
2023-05-21T21:19:06.230Z,5.72
2023-05-21T21:21:34.821Z,5.82
2023-05-21T21:24:04.204Z,5.63
2023-05-21T21:26:31.129Z,6.20
2023-05-21T21:28:59.585Z,6.63
2023-05-21T21:31:28.372Z,6.03
2023-05-21T21:33:55.358Z,5.85
2023-05-21T21:36:24.721Z,5.75
2023-05-21T21:38:54.071Z,5.80
2023-05-21T21:41:22.035Z,6.40
2023-05-21T21:43:49.326Z,5.28
2023-05-21T21:46:16.863Z,5.15
2023-05-21T21:48:44.315Z,6.13
2023-05-21T21:51:12.622Z,5.75
2023-05-21T21:53:40.567Z,5.60
2023-05-21T21:56:07.687Z,5.95
2023-05-21T21:58:35.978Z,5.85
2023-05-21T22:01:03.029Z,5.20
2023-05-21T22:03:34.738Z,5.82
2023-05-21T22:08:28.983Z,5.68
2023-05-21T22:10:56.265Z,5.28
2023-05-21T22:13:43.570Z,5.18
2023-05-21T22:16:11.922Z,5.90
2023-05-21T22:18:42.115Z,5.05
2023-05-21T22:21:14.146Z,5.40
2023-05-21T22:23:41.537Z,5.63
2023-05-21T22:26:09.544Z,5.60
2023-05-21T22:28:36.961Z,4.97
2023-05-21T22:33:50.593Z,5.65
2023-05-21T22:44:42.868Z,5.35
2023-05-21T22:47:10.554Z,4.70
2023-05-21T22:49:41.101Z,5.80
2023-05-21T22:52:09.318Z,5.47
2023-05-21T23:00:27.559Z,4.20
2023-05-21T23:03:14.966Z,5.32
2023-05-21T23:05:51.571Z,5.18
2023-05-21T23:08:18.467Z,5.22
2023-05-21T23:10:51.294Z,4.90
2023-05-21T23:13:18.195Z,4.50
2023-05-21T23:15:45.893Z,5.10
2023-05-21T23:18:12.910Z,4.63
2023-05-21T23:20:42.244Z,4.88
2023-05-21T23:23:11.285Z,5.20
2023-05-21T23:25:38.128Z,5.50
2023-05-21T23:28:05.125Z,5.15
2023-05-21T23:30:32.201Z,5.18
2023-05-21T23:32:59.913Z,5.00
2023-05-21T23:35:27.317Z,5.47
2023-05-21T23:37:54.606Z,5.10
2023-05-21T23:43:17.411Z,5.00
2023-05-21T23:45:44.610Z,5.03
2023-05-21T23:48:14.780Z,5.10
2023-05-21T23:50:41.888Z,5.75
2023-05-21T23:53:31.862Z,5.45
2023-05-21T23:56:01.821Z,5.65
2023-05-21T23:58:32.769Z,5.28
